createdAt,value
2018-06-08T00:02:21.264Z,19.20
2018-06-08T00:04:49.765Z,19.30
2018-06-08T00:07:18.279Z,19.20
2018-06-08T00:09:46.776Z,19.30
2018-06-08T00:12:15.313Z,19.30
2018-06-08T00:14:43.812Z,19.20
2018-06-08T00:17:12.344Z,19.20
2018-06-08T00:19:40.832Z,19.20
2018-06-08T00:22:09.446Z,19.20
2018-06-08T00:24:37.944Z,19.20
2018-06-08T00:27:06.504Z,19.20
2018-06-08T00:29:35.003Z,19.20
2018-06-08T00:32:03.507Z,19.20
2018-06-08T00:34:32.041Z,19.30
2018-06-08T00:37:00.587Z,19.20
2018-06-08T00:39:29.168Z,19.20
2018-06-08T00:41:57.869Z,19.20
2018-06-08T00:44:26.391Z,19.20
2018-06-08T00:46:54.859Z,19.20
2018-06-08T00:49:23.379Z,19.20
2018-06-08T00:51:51.857Z,19.20
2018-06-08T00:54:20.471Z,19.20
2018-06-08T00:57:09.667Z,19.20
2018-06-08T00:59:38.187Z,19.20
2018-06-08T01:02:06.720Z,19.20
2018-06-08T01:04:35.332Z,19.20
2018-06-08T01:07:04.020Z,19.20
2018-06-08T01:09:32.615Z,19.20
2018-06-08T01:12:01.215Z,19.20
2018-06-08T01:14:31.867Z,19.20
2018-06-08T01:17:01.040Z,19.10
2018-06-08T01:19:32.723Z,19.10
2018-06-08T01:22:01.641Z,19.10
2018-06-08T01:24:30.342Z,19.10
2018-06-08T01:26:59.094Z,19.20
2018-06-08T01:29:27.823Z,19.20
2018-06-08T01:31:56.380Z,19.20
2018-06-08T01:34:24.921Z,19.10
2018-06-08T01:36:53.527Z,19.10
2018-06-08T01:39:22.032Z,19.10
2018-06-08T01:41:50.623Z,19.10
2018-06-08T01:44:19.212Z,19.10
2018-06-08T01:46:47.731Z,19.10
2018-06-08T01:49:16.219Z,19.10
2018-06-08T01:51:44.731Z,19.10
2018-06-08T01:54:13.250Z,19.10
2018-06-08T01:56:41.731Z,19.10
2018-06-08T01:59:10.587Z,19.10
2018-06-08T02:01:39.198Z,19.10
2018-06-08T02:04:07.755Z,19.10
2018-06-08T02:06:36.309Z,19.10
2018-06-08T02:09:07.195Z,19.10
2018-06-08T02:11:36.041Z,19.10
2018-06-08T02:14:04.551Z,19.10
2018-06-08T02:16:33.048Z,19.10
2018-06-08T02:19:01.583Z,19.20
2018-06-08T02:21:30.076Z,19.20
2018-06-08T02:23:58.581Z,19.20
2018-06-08T02:26:27.099Z,19.20
2018-06-08T02:28:55.624Z,19.20
2018-06-08T02:31:24.139Z,19.20
2018-06-08T02:33:52.623Z,19.10
2018-06-08T02:36:21.156Z,19.10
2018-06-08T02:38:49.779Z,19.10
2018-06-08T02:41:18.419Z,19.10
2018-06-08T02:43:47.038Z,19.10
2018-06-08T02:46:15.652Z,19.10
2018-06-08T02:48:44.215Z,19.10
2018-06-08T02:51:12.735Z,19.20
2018-06-08T02:53:41.307Z,19.20
2018-06-08T02:56:09.799Z,19.20
2018-06-08T02:58:38.328Z,19.20
2018-06-08T03:01:06.812Z,19.20
2018-06-08T03:03:35.287Z,19.20
2018-06-08T03:06:03.795Z,19.20
2018-06-08T03:08:32.315Z,19.30
2018-06-08T03:11:00.883Z,19.30
2018-06-08T03:13:29.645Z,19.30
2018-06-08T03:15:58.152Z,19.30
2018-06-08T03:18:26.640Z,19.30
2018-06-08T03:20:55.196Z,19.30
2018-06-08T03:23:23.706Z,19.30
2018-06-08T03:25:52.208Z,19.30
2018-06-08T03:28:20.761Z,19.30
2018-06-08T03:30:49.440Z,19.30
2018-06-08T03:33:17.956Z,19.30
2018-06-08T03:35:46.489Z,19.30
2018-06-08T03:38:14.979Z,19.30
2018-06-08T03:40:43.507Z,19.20
2018-06-08T03:43:12.139Z,19.20
2018-06-08T03:45:40.684Z,19.30
2018-06-08T03:48:09.191Z,19.20
2018-06-08T03:53:06.295Z,19.10
2018-06-08T03:55:34.885Z,19.10
2018-06-08T03:58:03.486Z,19.20
2018-06-08T04:00:31.994Z,19.20
2018-06-08T04:03:00.688Z,19.20
2018-06-08T04:05:29.187Z,19.20
2018-06-08T04:07:57.887Z,19.30
2018-06-08T04:10:26.415Z,19.30
2018-06-08T04:12:55.032Z,19.30
2018-06-08T04:15:23.571Z,19.40
2018-06-08T04:17:52.108Z,19.40
2018-06-08T04:20:20.644Z,19.50
2018-06-08T04:22:49.239Z,19.50
2018-06-08T04:25:17.730Z,19.50
2018-06-08T04:27:46.312Z,19.50
2018-06-08T04:30:14.876Z,19.50
2018-06-08T04:32:43.419Z,19.50
2018-06-08T04:35:11.932Z,19.50
2018-06-08T04:37:40.423Z,19.50
2018-06-08T04:40:09.236Z,19.50
2018-06-08T04:42:37.754Z,19.50
2018-06-08T04:45:06.617Z,19.60
2018-06-08T04:47:35.351Z,19.60
2018-06-08T04:50:04.012Z,19.70
2018-06-08T04:55:00.846Z,19.70
2018-06-08T04:57:29.448Z,19.80
2018-06-08T04:59:58.063Z,19.80
2018-06-08T05:02:26.544Z,19.80
2018-06-08T05:04:55.040Z,19.90
2018-06-08T05:07:23.535Z,20.00
2018-06-08T05:09:52.020Z,20.00
2018-06-08T05:12:20.521Z,20.10
2018-06-08T05:14:48.990Z,20.20
2018-06-08T05:17:17.713Z,20.30
2018-06-08T05:19:46.355Z,20.30
2018-06-08T05:22:14.860Z,20.30
2018-06-08T05:24:43.375Z,20.40
2018-06-08T05:27:11.992Z,20.40
2018-06-08T05:29:40.475Z,20.50
2018-06-08T05:32:08.994Z,20.50
2018-06-08T05:34:37.498Z,20.60
2018-06-08T05:39:34.258Z,20.80
2018-06-08T05:42:02.787Z,20.80
2018-06-08T05:44:31.467Z,20.80
2018-06-08T05:46:59.975Z,20.80
2018-06-08T05:49:28.544Z,20.90
2018-06-08T05:51:57.171Z,21.10
2018-06-08T05:54:25.736Z,21.20
2018-06-08T05:56:54.284Z,21.40
2018-06-08T05:59:22.789Z,21.40
2018-06-08T06:01:51.632Z,21.60
2018-06-08T06:04:20.255Z,21.50
2018-06-08T06:06:48.924Z,21.60
2018-06-08T06:09:17.433Z,21.60
2018-06-08T06:11:46.032Z,21.80
2018-06-08T06:14:14.565Z,21.70
2018-06-08T06:16:43.737Z,21.80
2018-06-08T06:19:12.243Z,22.00
2018-06-08T06:21:40.872Z,21.70
2018-06-08T06:24:09.416Z,21.90
2018-06-08T06:26:37.951Z,21.90
2018-06-08T06:29:06.491Z,22.10
2018-06-08T06:31:35.003Z,22.10
2018-06-08T06:34:03.612Z,22.00
2018-06-08T06:36:32.220Z,22.20
2018-06-08T06:39:00.804Z,22.20
2018-06-08T06:41:29.329Z,22.30
2018-06-08T06:43:57.822Z,22.00
2018-06-08T06:46:26.480Z,21.90
2018-06-08T06:48:55.143Z,22.30
2018-06-08T06:51:23.701Z,22.40
2018-06-08T06:53:52.271Z,22.30
2018-06-08T06:56:20.784Z,22.20
2018-06-08T06:58:49.358Z,22.20
2018-06-08T07:03:46.143Z,22.20
2018-06-08T07:06:14.695Z,22.20
2018-06-08T07:08:43.264Z,22.20
2018-06-08T07:11:11.764Z,22.00
2018-06-08T07:13:40.402Z,22.20
2018-06-08T07:16:09.219Z,22.20
2018-06-08T07:18:37.949Z,22.10
2018-06-08T07:21:06.640Z,22.20
2018-06-08T07:23:35.257Z,22.30
2018-06-08T07:26:03.790Z,22.40
2018-06-08T07:28:32.340Z,22.40
2018-06-08T07:31:00.831Z,22.50
2018-06-08T07:33:29.324Z,22.80
2018-06-08T07:35:57.847Z,22.80
2018-06-08T07:38:26.611Z,22.50
2018-06-08T07:40:55.196Z,22.80
2018-06-08T07:43:23.735Z,23.00
2018-06-08T07:45:52.399Z,23.40
2018-06-08T07:48:20.892Z,23.50
2018-06-08T07:50:49.508Z,24.20
2018-06-08T07:53:18.012Z,24.10
2018-06-08T07:55:46.529Z,24.10
2018-06-08T07:58:15.143Z,24.10
2018-06-08T08:00:43.751Z,24.10
2018-06-08T08:03:12.315Z,24.40
2018-06-08T08:08:09.083Z,24.00
2018-06-08T08:10:37.755Z,23.80
2018-06-08T08:13:06.216Z,23.80
2018-06-08T08:15:34.904Z,23.40
2018-06-08T08:18:04.404Z,23.30
2018-06-08T08:20:33.051Z,23.10
2018-06-08T08:23:01.724Z,23.00
2018-06-08T08:25:30.271Z,22.70
2018-06-08T08:27:58.787Z,22.50
2018-06-08T08:30:27.280Z,22.10
2018-06-08T08:32:55.768Z,22.00
2018-06-08T08:35:24.392Z,21.90
2018-06-08T08:37:52.884Z,21.70
2018-06-08T08:40:21.399Z,21.50
2018-06-08T08:42:49.882Z,21.40
2018-06-08T08:45:18.400Z,21.30
2018-06-08T08:47:47.433Z,21.30
2018-06-08T08:50:16.013Z,21.20
2018-06-08T08:52:44.627Z,21.20
2018-06-08T08:55:13.112Z,21.10
2018-06-08T08:57:41.628Z,21.00
2018-06-08T09:00:10.095Z,20.70
2018-06-08T09:02:38.570Z,20.60
2018-06-08T09:05:07.263Z,20.40
2018-06-08T09:07:35.703Z,20.30
2018-06-08T09:12:32.701Z,20.20
2018-06-08T09:15:01.293Z,20.20
2018-06-08T09:17:29.777Z,20.20
2018-06-08T09:19:58.260Z,20.10
2018-06-08T09:22:26.876Z,20.20
2018-06-08T09:24:55.642Z,20.20
2018-06-08T09:27:24.167Z,20.20
2018-06-08T09:29:52.683Z,20.10
2018-06-08T09:32:21.139Z,20.20
2018-06-08T09:34:49.828Z,20.10
2018-06-08T09:37:18.525Z,20.10
2018-06-08T09:39:47.003Z,20.10
2018-06-08T09:42:15.516Z,20.10
2018-06-08T09:44:44.012Z,20.10
2018-06-08T09:47:12.507Z,20.10
2018-06-08T09:49:41.022Z,20.10
2018-06-08T09:52:09.743Z,20.00
2018-06-08T09:54:38.378Z,19.90
2018-06-08T09:57:07.101Z,19.90
2018-06-08T09:59:35.649Z,20.00
2018-06-08T10:02:04.257Z,20.00
2018-06-08T10:04:32.772Z,20.00
2018-06-08T10:07:01.283Z,20.00
2018-06-08T10:09:29.754Z,19.90
2018-06-08T10:11:58.271Z,19.80
2018-06-08T10:14:26.776Z,19.70
2018-06-08T10:16:55.291Z,19.80
2018-06-08T10:19:23.820Z,19.80
2018-06-08T10:21:52.348Z,19.70
2018-06-08T10:24:20.935Z,19.70
2018-06-08T10:26:49.427Z,19.80
2018-06-08T10:29:17.924Z,19.80
2018-06-08T10:31:46.416Z,19.90
2018-06-08T10:34:14.922Z,20.00
2018-06-08T10:36:43.453Z,20.00
2018-06-08T10:39:11.989Z,20.00
2018-06-08T10:41:40.468Z,20.10
2018-06-08T10:44:09.089Z,20.20
2018-06-08T10:46:37.629Z,20.30
2018-06-08T10:49:06.127Z,20.30
2018-06-08T10:51:34.664Z,20.40
2018-06-08T10:54:03.144Z,20.40
2018-06-08T10:56:31.756Z,20.20
2018-06-08T10:59:00.264Z,20.20
2018-06-08T11:01:28.814Z,20.10
2018-06-08T11:03:57.338Z,20.00
2018-06-08T11:06:25.968Z,20.00
2018-06-08T11:08:54.532Z,20.00
2018-06-08T11:11:23.175Z,19.90
2018-06-08T11:13:51.743Z,19.90
2018-06-08T11:16:20.340Z,20.00
2018-06-08T11:18:48.900Z,20.00
2018-06-08T11:21:17.447Z,20.20
2018-06-08T11:23:45.974Z,20.20
2018-06-08T11:26:14.475Z,20.30
2018-06-08T11:28:43.032Z,20.40
2018-06-08T11:31:11.559Z,20.60
2018-06-08T11:33:40.203Z,20.80
2018-06-08T11:36:08.811Z,21.10
2018-06-08T11:38:37.352Z,21.10
2018-06-08T11:41:06.036Z,21.30
2018-06-08T11:43:34.660Z,21.60
2018-06-08T11:46:03.307Z,21.70
2018-06-08T11:48:31.801Z,22.00
2018-06-08T11:51:00.560Z,22.30
2018-06-08T11:53:29.063Z,22.40
2018-06-08T11:55:57.610Z,22.50
2018-06-08T11:58:26.077Z,22.50
2018-06-08T12:00:54.570Z,22.60
2018-06-08T12:03:23.079Z,22.10
2018-06-08T12:05:51.749Z,22.10
2018-06-08T12:08:20.247Z,22.00
2018-06-08T12:10:48.797Z,22.00
2018-06-08T12:13:17.263Z,21.90
2018-06-08T12:15:45.808Z,22.00
2018-06-08T12:18:14.501Z,22.10
2018-06-08T12:20:43.081Z,22.00
2018-06-08T12:23:11.618Z,22.10
2018-06-08T12:25:40.193Z,21.90
2018-06-08T12:28:15.530Z,22.00
2018-06-08T12:30:44.317Z,22.10
2018-06-08T12:33:12.776Z,22.10
2018-06-08T12:35:41.342Z,22.40
2018-06-08T12:38:10.143Z,22.50
2018-06-08T12:40:38.679Z,22.60
2018-06-08T12:43:07.783Z,22.40
2018-06-08T12:45:36.492Z,22.30
2018-06-08T12:48:05.245Z,22.20
2018-06-08T12:50:33.763Z,22.10
2018-06-08T12:53:02.351Z,22.30
2018-06-08T12:55:30.843Z,22.50
2018-06-08T12:57:59.417Z,22.70
2018-06-08T13:00:27.992Z,22.50
2018-06-08T13:02:56.789Z,22.90
2018-06-08T13:05:25.315Z,23.10
2018-06-08T13:07:53.927Z,23.50
2018-06-08T13:10:22.489Z,23.30
2018-06-08T13:12:50.980Z,23.20
2018-06-08T13:15:19.475Z,23.60
2018-06-08T13:17:48.012Z,23.20
2018-06-08T13:22:44.919Z,23.00
2018-06-08T13:25:13.632Z,22.90
2018-06-08T13:27:42.161Z,23.00
2018-06-08T13:30:10.694Z,23.10
2018-06-08T13:32:39.326Z,23.10
2018-06-08T13:35:07.912Z,23.50
2018-06-08T13:37:36.745Z,23.80
2018-06-08T13:40:05.907Z,23.80
2018-06-08T13:42:34.395Z,23.80
2018-06-08T13:45:02.948Z,23.80
2018-06-08T13:47:31.496Z,23.60
2018-06-08T13:49:59.999Z,23.80
2018-06-08T13:52:28.575Z,23.80
2018-06-08T13:54:57.071Z,23.60
2018-06-08T13:57:25.671Z,23.40
2018-06-08T13:59:54.202Z,23.50
2018-06-08T14:02:22.895Z,23.40
2018-06-08T14:04:51.439Z,23.50
2018-06-08T14:07:20.038Z,23.40
2018-06-08T14:09:48.572Z,23.10
2018-06-08T14:12:17.147Z,23.10
2018-06-08T14:14:45.680Z,23.20
2018-06-08T14:17:14.248Z,23.20
2018-06-08T14:19:42.743Z,23.10
2018-06-08T14:22:11.240Z,23.20
2018-06-08T14:24:39.741Z,23.00
2018-06-08T14:27:08.289Z,23.30
2018-06-08T14:29:36.860Z,23.20
2018-06-08T14:32:05.555Z,23.50
2018-06-08T14:34:34.188Z,23.60
2018-06-08T14:37:02.951Z,23.40
2018-06-08T14:39:31.539Z,23.70
2018-06-08T14:42:00.164Z,23.50
2018-06-08T14:44:28.732Z,23.40
2018-06-08T14:46:57.246Z,23.60
2018-06-08T14:49:25.779Z,23.70
2018-06-08T14:51:54.882Z,23.80
2018-06-08T14:54:23.656Z,24.00
2018-06-08T14:56:52.124Z,23.90
2018-06-08T14:59:20.700Z,24.20
2018-06-08T15:01:49.337Z,24.30
2018-06-08T15:04:17.940Z,24.30
2018-06-08T15:06:46.456Z,24.10
2018-06-08T15:09:15.071Z,24.00
2018-06-08T15:11:43.708Z,23.80
2018-06-08T15:14:12.287Z,23.80
2018-06-08T15:16:40.872Z,23.70
2018-06-08T15:19:09.446Z,23.70
2018-06-08T15:21:38.046Z,23.80
2018-06-08T15:24:06.588Z,23.80
2018-06-08T15:26:35.083Z,23.60
2018-06-08T15:29:08.121Z,23.80
2018-06-08T15:31:37.203Z,23.80
2018-06-08T15:34:06.122Z,24.10
2018-06-08T15:36:34.776Z,23.90
2018-06-08T15:39:03.847Z,23.90
2018-06-08T15:41:32.360Z,24.00
2018-06-08T15:44:01.330Z,24.10
2018-06-08T15:46:29.833Z,24.30
2018-06-08T15:49:02.029Z,24.50
2018-06-08T15:51:31.242Z,24.10
2018-06-08T15:53:59.843Z,24.20
2018-06-08T15:56:28.384Z,24.20
2018-06-08T15:58:56.934Z,23.90
2018-06-08T16:01:25.582Z,24.00
2018-06-08T16:03:54.183Z,23.80
2018-06-08T16:06:22.699Z,23.80
2018-06-08T16:08:51.228Z,23.80
2018-06-08T16:11:19.808Z,23.70
2018-06-08T16:13:48.395Z,23.60
2018-06-08T16:16:16.913Z,23.50
2018-06-08T16:21:13.719Z,23.30
2018-06-08T16:23:42.311Z,23.20
2018-06-08T16:26:11.008Z,23.20
2018-06-08T16:28:39.610Z,23.30
2018-06-08T16:31:08.147Z,23.30
2018-06-08T16:33:36.653Z,23.30
2018-06-08T16:36:05.225Z,23.50
2018-06-08T16:38:33.803Z,23.80
2018-06-08T16:41:02.332Z,24.00
2018-06-08T16:43:31.108Z,24.20
2018-06-08T16:45:59.886Z,24.30
2018-06-08T16:48:28.355Z,24.70
2018-06-08T16:50:56.924Z,24.80
2018-06-08T16:53:25.500Z,24.80
2018-06-08T16:55:54.158Z,24.90
2018-06-08T16:58:22.824Z,24.70
2018-06-08T17:00:51.360Z,24.50
2018-06-08T17:03:20.004Z,24.30
2018-06-08T17:05:48.524Z,24.00
2018-06-08T17:08:17.163Z,24.00
2018-06-08T17:10:45.728Z,24.10
2018-06-08T17:13:14.312Z,24.30
2018-06-08T17:15:42.862Z,24.10
2018-06-08T17:18:11.506Z,24.20
2018-06-08T17:20:40.303Z,24.30
2018-06-08T17:23:08.935Z,24.10
2018-06-08T17:25:37.436Z,24.00
2018-06-08T17:28:06.016Z,24.00
2018-06-08T17:30:34.689Z,24.10
2018-06-08T17:33:03.171Z,23.90
2018-06-08T17:35:31.718Z,23.70
2018-06-08T17:38:00.226Z,23.60
2018-06-08T17:40:31.743Z,23.60
2018-06-08T17:43:00.356Z,23.70
2018-06-08T17:45:28.975Z,23.80
2018-06-08T17:47:57.471Z,23.70
2018-06-08T17:52:54.601Z,23.80
2018-06-08T17:55:23.140Z,23.80
2018-06-08T17:57:51.659Z,23.90
2018-06-08T18:00:26.676Z,23.80
2018-06-08T18:02:55.264Z,23.80
2018-06-08T18:05:23.867Z,23.80
2018-06-08T18:07:52.399Z,23.60
2018-06-08T18:10:20.911Z,23.50
2018-06-08T18:12:49.493Z,23.40
2018-06-08T18:15:18.045Z,23.40
2018-06-08T18:17:46.622Z,23.40
2018-06-08T18:20:15.115Z,23.30
2018-06-08T18:25:11.821Z,23.30
2018-06-08T18:27:40.351Z,23.30
2018-06-08T18:30:08.979Z,23.20
2018-06-08T18:32:37.645Z,23.20
2018-06-08T18:35:06.426Z,23.00
2018-06-08T18:37:34.999Z,22.90
2018-06-08T18:40:03.603Z,22.80
2018-06-08T18:42:32.231Z,22.60
2018-06-08T18:45:01.020Z,22.50
2018-06-08T18:47:29.627Z,22.40
2018-06-08T18:49:58.188Z,22.40
2018-06-08T18:52:27.040Z,22.40
2018-06-08T18:54:55.699Z,22.40
2018-06-08T18:59:52.492Z,22.20
2018-06-08T19:02:21.469Z,22.20
2018-06-08T19:04:50.013Z,22.20
2018-06-08T19:07:18.528Z,22.10
2018-06-08T19:09:47.127Z,22.10
2018-06-08T19:12:15.700Z,22.00
2018-06-08T19:14:44.244Z,22.00
2018-06-08T19:17:12.791Z,21.80
2018-06-08T19:19:41.462Z,21.80
2018-06-08T19:22:10.033Z,21.80
2018-06-08T19:27:06.713Z,21.70
2018-06-08T19:29:35.453Z,21.60
2018-06-08T19:32:03.989Z,21.60
2018-06-08T19:34:32.511Z,21.60
2018-06-08T19:37:01.109Z,21.50
2018-06-08T19:41:58.062Z,21.40
2018-06-08T19:44:26.684Z,21.40
2018-06-08T19:46:55.548Z,21.40
2018-06-08T19:49:24.171Z,21.40
2018-06-08T19:51:52.703Z,21.40
2018-06-08T19:54:21.436Z,21.30
2018-06-08T19:56:50.231Z,21.30
2018-06-08T19:59:18.807Z,21.20
2018-06-08T20:01:47.360Z,21.20
2018-06-08T20:04:16.578Z,21.20
2018-06-08T20:09:13.300Z,21.10
2018-06-08T20:11:41.886Z,21.10
2018-06-08T20:14:10.408Z,21.10
2018-06-08T20:16:39.080Z,21.00
2018-06-08T20:21:35.802Z,21.10
2018-06-08T20:24:04.357Z,21.00
2018-06-08T20:26:32.916Z,21.00
2018-06-08T20:29:01.929Z,21.00
2018-06-08T20:31:30.475Z,21.00
2018-06-08T20:36:27.208Z,21.00
2018-06-08T20:38:55.809Z,21.00
2018-06-08T20:41:24.435Z,20.90
2018-06-08T20:43:53.116Z,20.90
2018-06-08T20:46:21.767Z,20.80
2018-06-08T20:48:50.401Z,20.90
2018-06-08T20:51:18.912Z,20.90
2018-06-08T20:53:47.448Z,20.90
2018-06-08T20:56:16.201Z,20.90
2018-06-08T20:58:44.926Z,20.90
2018-06-08T21:01:13.575Z,20.90
2018-06-08T21:03:42.104Z,20.90
2018-06-08T21:06:10.615Z,20.90
2018-06-08T21:08:39.157Z,20.90
2018-06-08T21:11:07.727Z,20.90
2018-06-08T21:13:36.825Z,20.80
2018-06-08T21:16:05.544Z,20.70
2018-06-08T21:18:34.016Z,20.70
2018-06-08T21:21:02.692Z,20.70
2018-06-08T21:23:31.308Z,20.80
2018-06-08T21:25:59.819Z,20.80
2018-06-08T21:28:28.396Z,20.70
2018-06-08T21:30:56.935Z,20.80
2018-06-08T21:33:25.455Z,20.80
2018-06-08T21:35:54.223Z,20.80
2018-06-08T21:38:22.766Z,20.70
2018-06-08T21:40:51.272Z,20.70
2018-06-08T21:43:19.856Z,20.70
2018-06-08T21:45:48.403Z,20.70
2018-06-08T21:48:17.159Z,20.70
2018-06-08T21:50:45.679Z,20.70
2018-06-08T21:53:14.393Z,20.70
2018-06-08T21:55:42.891Z,20.70
2018-06-08T21:58:11.656Z,20.70
2018-06-08T22:00:40.164Z,20.70
2018-06-08T22:03:08.767Z,20.70
2018-06-08T22:05:37.319Z,20.70
2018-06-08T22:08:05.943Z,20.60
2018-06-08T22:10:34.545Z,20.70
2018-06-08T22:13:03.405Z,20.60
2018-06-08T22:15:32.003Z,20.60
2018-06-08T22:18:00.545Z,20.60
2018-06-08T22:20:29.106Z,20.50
2018-06-08T22:22:57.648Z,20.40
2018-06-08T22:25:26.194Z,20.40
2018-06-08T22:27:54.823Z,20.30
2018-06-08T22:30:23.478Z,20.30
2018-06-08T22:32:52.969Z,20.30
2018-06-08T22:35:21.719Z,20.30
2018-06-08T22:37:50.339Z,20.30
2018-06-08T22:40:18.899Z,20.30
2018-06-08T22:42:47.545Z,20.20
2018-06-08T22:45:16.099Z,20.20
2018-06-08T22:47:44.592Z,20.20
2018-06-08T22:50:13.233Z,20.20
2018-06-08T22:55:09.883Z,20.10
2018-06-08T23:00:06.631Z,20.00
2018-06-08T23:02:35.204Z,20.00
2018-06-08T23:05:03.803Z,20.00
2018-06-08T23:07:32.433Z,20.00
2018-06-08T23:10:00.945Z,20.00
2018-06-08T23:12:29.716Z,20.00
2018-06-08T23:14:58.274Z,20.00
2018-06-08T23:17:26.754Z,20.10
2018-06-08T23:19:55.500Z,20.00
2018-06-08T23:22:24.078Z,20.00
2018-06-08T23:24:52.599Z,20.00
2018-06-08T23:27:21.293Z,20.00
2018-06-08T23:29:49.878Z,20.00
2018-06-08T23:32:18.453Z,20.00
2018-06-08T23:34:47.088Z,19.90
2018-06-08T23:37:15.735Z,19.90
2018-06-08T23:39:44.236Z,19.90
2018-06-08T23:42:12.879Z,19.90
2018-06-08T23:44:41.466Z,20.00
2018-06-08T23:47:10.109Z,19.90
2018-06-08T23:49:38.678Z,19.90
2018-06-08T23:52:07.308Z,19.90
2018-06-08T23:54:35.847Z,19.80
2018-06-08T23:57:04.584Z,19.80
2018-06-08T23:59:33.195Z,19.80
